JAL3484 RJKA-RJFF
Flight info
| Callsign | JAL3484 |
|---|---|
| Flight time | 0h 58m |
| Altitude | 35000 |
| Route | RURIK Y532 HKC/N0448F360 Y504 GOKYO Y25 ISKUP |
| Aircraft | E170/M-SDE3GILORVW/S |
Departure
| Time | 2026-05-06 14:51 |
|---|---|
| Airport | Amami Airport (RJKA) |
Arrival
| Time | 2026-05-06 15:49 |
|---|---|
| Airport | Fukuoka Airport (RJFF) |
| Time | Latitude | Longitude | Altitude | Speed | Heading |
|---|---|---|---|---|---|
| 2026-05-06 14:36 | 28.43164 | 129.70919 | 27 ft | 0 kts | 295° |
| 2026-05-06 14:44 | 28.43161 | 129.70927 | 27 ft | 4 kts | 295° |
| 2026-05-06 14:45 | 28.43138 | 129.70983 | 27 ft | 4 kts | 295° |
| 2026-05-06 14:45 | 28.43126 | 129.71010 | 27 ft | 4 kts | 298° |
| 2026-05-06 14:45 | 28.43112 | 129.71036 | 27 ft | 4 kts | 309° |
| 2026-05-06 14:45 | 28.43091 | 129.71052 | 27 ft | 4 kts | 353° |
| 2026-05-06 14:46 | 28.43078 | 129.71049 | 28 ft | 1 kts | 25° |
| 2026-05-06 14:46 | 28.43076 | 129.71048 | 28 ft | 0 kts | 25° |
| 2026-05-06 14:47 | 28.43081 | 129.71051 | 28 ft | 2 kts | 25° |
| 2026-05-06 14:48 | 28.43108 | 129.71065 | 27 ft | 6 kts | 25° |
| 2026-05-06 14:48 | 28.43160 | 129.71092 | 27 ft | 10 kts | 24° |
| 2026-05-06 14:48 | 28.43233 | 129.71132 | 26 ft | 14 kts | 26° |
| 2026-05-06 14:48 | 28.43329 | 129.71185 | 27 ft | 17 kts | 25° |
| 2026-05-06 14:49 | 28.43442 | 129.71248 | 27 ft | 20 kts | 26° |
| 2026-05-06 14:49 | 28.43575 | 129.71322 | 24 ft | 23 kts | 26° |
| 2026-05-06 14:49 | 28.43724 | 129.71404 | 22 ft | 25 kts | 26° |
| 2026-05-06 14:49 | 28.43830 | 129.71463 | 21 ft | 10 kts | 26° |
| 2026-05-06 14:50 | 28.43904 | 129.71508 | 21 ft | 14 kts | 40° |
| 2026-05-06 14:50 | 28.43912 | 129.71613 | 23 ft | 16 kts | 111° |
| 2026-05-06 14:50 | 28.43821 | 129.71665 | 19 ft | 17 kts | 200° |
| 2026-05-06 14:50 | 28.43665 | 129.71583 | 22 ft | 53 kts | 205° |
| 2026-05-06 14:51 | 28.43030 | 129.71237 | 28 ft | 146 kts | 205° |
| 2026-05-06 14:51 | 28.42103 | 129.70685 | 1085 ft | 131 kts | 208° |
| 2026-05-06 14:51 | 28.41345 | 129.70288 | 1730 ft | 140 kts | 185° |
| 2026-05-06 14:51 | 28.40171 | 129.70488 | 1949 ft | 198 kts | 153° |
| 2026-05-06 14:52 | 28.39047 | 129.71536 | 2519 ft | 219 kts | 126° |
| 2026-05-06 14:52 | 28.38360 | 129.73123 | 3149 ft | 242 kts | 108° |
| 2026-05-06 14:52 | 28.38119 | 129.75212 | 2911 ft | 283 kts | 83° |
| 2026-05-06 14:52 | 28.38801 | 129.77232 | 2754 ft | 269 kts | 53° |
| 2026-05-06 14:53 | 28.40257 | 129.78471 | 3084 ft | 263 kts | 18° |
| 2026-05-06 14:53 | 28.42029 | 129.78762 | 4332 ft | 263 kts | 4° |
| 2026-05-06 14:53 | 28.43870 | 129.79030 | 5414 ft | 268 kts | 17° |
| 2026-05-06 14:53 | 28.45558 | 129.79967 | 6515 ft | 272 kts | 33° |
| 2026-05-06 14:54 | 28.47119 | 129.81195 | 7491 ft | 278 kts | 32° |
| 2026-05-06 14:54 | 28.48790 | 129.82394 | 8420 ft | 286 kts | 29° |
| 2026-05-06 14:54 | 28.50532 | 129.83528 | 9247 ft | 294 kts | 27° |
| 2026-05-06 14:54 | 28.52371 | 129.84656 | 10057 ft | 302 kts | 26° |
| 2026-05-06 14:55 | 28.54272 | 129.85791 | 10547 ft | 318 kts | 26° |
| 2026-05-06 14:55 | 28.55614 | 129.86548 | 10871 ft | 328 kts | 23° |
| 2026-05-06 14:55 | 28.58460 | 129.87919 | 11739 ft | 337 kts | 21° |
| 2026-05-06 14:55 | 28.60653 | 129.88948 | 12463 ft | 343 kts | 21° |
| 2026-05-06 14:56 | 28.62860 | 129.89977 | 13202 ft | 348 kts | 21° |
| 2026-05-06 14:56 | 28.64365 | 129.90675 | 13723 ft | 351 kts | 20° |
| 2026-05-06 14:56 | 28.67412 | 129.92090 | 14746 ft | 359 kts | 20° |
| 2026-05-06 14:56 | 28.68959 | 129.92814 | 15273 ft | 363 kts | 20° |
| 2026-05-06 14:57 | 28.71322 | 129.93914 | 16018 ft | 368 kts | 20° |
| 2026-05-06 14:57 | 28.73693 | 129.95019 | 16710 ft | 374 kts | 20° |
| 2026-05-06 14:57 | 28.76123 | 129.96156 | 17418 ft | 379 kts | 19° |
| 2026-05-06 14:57 | 28.78587 | 129.97309 | 18098 ft | 383 kts | 19° |
| 2026-05-06 14:58 | 28.81047 | 129.98460 | 18757 ft | 388 kts | 19° |
| 2026-05-06 14:58 | 28.83581 | 129.99643 | 19404 ft | 393 kts | 19° |
| 2026-05-06 14:58 | 28.86095 | 130.00818 | 20060 ft | 397 kts | 19° |
| 2026-05-06 14:58 | 28.88698 | 130.02038 | 20571 ft | 405 kts | 19° |
| 2026-05-06 14:59 | 28.91296 | 130.03255 | 21213 ft | 409 kts | 19° |
| 2026-05-06 14:59 | 28.93953 | 130.04503 | 21787 ft | 414 kts | 19° |
| 2026-05-06 14:59 | 28.96644 | 130.05763 | 22376 ft | 418 kts | 19° |
| 2026-05-06 14:59 | 28.99330 | 130.07024 | 22914 ft | 423 kts | 19° |
| 2026-05-06 15:00 | 29.02046 | 130.08301 | 23467 ft | 426 kts | 19° |
| 2026-05-06 15:00 | 29.04821 | 130.09603 | 23979 ft | 431 kts | 19° |
| 2026-05-06 15:00 | 29.07587 | 130.10905 | 24484 ft | 434 kts | 19° |
| 2026-05-06 15:00 | 29.10397 | 130.12227 | 25000 ft | 437 kts | 20° |
| 2026-05-06 15:01 | 29.13230 | 130.13559 | 25504 ft | 440 kts | 20° |
| 2026-05-06 15:01 | 29.16078 | 130.14902 | 25968 ft | 443 kts | 20° |
| 2026-05-06 15:01 | 29.18919 | 130.16241 | 26411 ft | 446 kts | 20° |
| 2026-05-06 15:01 | 29.21780 | 130.17590 | 26856 ft | 449 kts | 20° |
| 2026-05-06 15:02 | 29.24692 | 130.18963 | 27262 ft | 452 kts | 20° |
| 2026-05-06 15:02 | 29.27645 | 130.20264 | 27666 ft | 454 kts | 15° |
| 2026-05-06 15:02 | 29.30654 | 130.21240 | 28076 ft | 455 kts | 12° |
| 2026-05-06 15:02 | 29.33767 | 130.21971 | 28440 ft | 456 kts | 5° |
| 2026-05-06 15:03 | 29.36940 | 130.22490 | 28806 ft | 458 kts | 5° |
| 2026-05-06 15:03 | 29.40098 | 130.22975 | 29138 ft | 462 kts | 5° |
| 2026-05-06 15:03 | 29.43271 | 130.23452 | 29462 ft | 465 kts | 5° |
| 2026-05-06 15:03 | 29.46501 | 130.23935 | 29786 ft | 467 kts | 5° |
| 2026-05-06 15:04 | 29.49768 | 130.24424 | 29869 ft | 476 kts | 5° |
| 2026-05-06 15:04 | 29.53034 | 130.24915 | 30201 ft | 477 kts | 5° |
| 2026-05-06 15:04 | 29.56341 | 130.25412 | 30561 ft | 478 kts | 5° |
| 2026-05-06 15:04 | 29.59619 | 130.25905 | 30925 ft | 479 kts | 5° |
| 2026-05-06 15:05 | 29.62948 | 130.26404 | 31260 ft | 480 kts | 5° |
| 2026-05-06 15:05 | 29.66262 | 130.26904 | 31600 ft | 480 kts | 5° |
| 2026-05-06 15:05 | 29.69550 | 130.27399 | 31935 ft | 481 kts | 5° |
| 2026-05-06 15:05 | 29.72866 | 130.27899 | 32262 ft | 481 kts | 5° |
| 2026-05-06 15:06 | 29.76201 | 130.28403 | 32550 ft | 482 kts | 5° |
| 2026-05-06 15:06 | 29.79505 | 130.28902 | 32852 ft | 483 kts | 5° |
| 2026-05-06 15:06 | 29.82808 | 130.29402 | 32964 ft | 473 kts | 5° |
| 2026-05-06 15:07 | 29.89420 | 130.30400 | 33065 ft | 488 kts | 5° |
| 2026-05-06 15:07 | 29.96301 | 130.31442 | 33084 ft | 504 kts | 5° |
| 2026-05-06 15:08 | 30.03336 | 130.32511 | 33078 ft | 517 kts | 5° |
| 2026-05-06 15:08 | 30.10513 | 130.33605 | 33065 ft | 519 kts | 5° |
| 2026-05-06 15:09 | 30.17645 | 130.34694 | 33078 ft | 518 kts | 5° |
| 2026-05-06 15:09 | 30.24784 | 130.35784 | 33068 ft | 517 kts | 5° |
| 2026-05-06 15:09 | 30.28314 | 130.36320 | 33070 ft | 504 kts | 6° |
| 2026-05-06 15:10 | 30.31772 | 130.36855 | 33079 ft | 498 kts | 6° |
| 2026-05-06 15:10 | 30.38661 | 130.37910 | 33068 ft | 501 kts | 6° |
| 2026-05-06 15:11 | 30.45544 | 130.38966 | 33079 ft | 500 kts | 6° |
| 2026-05-06 15:11 | 30.52424 | 130.40024 | 33067 ft | 499 kts | 6° |
| 2026-05-06 15:12 | 30.59311 | 130.41084 | 33076 ft | 499 kts | 6° |
| 2026-05-06 15:12 | 30.66171 | 130.42143 | 33071 ft | 498 kts | 6° |
| 2026-05-06 15:13 | 30.73057 | 130.43205 | 33073 ft | 498 kts | 6° |
| 2026-05-06 15:13 | 30.79914 | 130.44265 | 33085 ft | 497 kts | 6° |
| 2026-05-06 15:14 | 30.86779 | 130.45328 | 33077 ft | 497 kts | 6° |
| 2026-05-06 15:14 | 30.93627 | 130.46389 | 33087 ft | 496 kts | 6° |
| 2026-05-06 15:15 | 31.00418 | 130.47445 | 33079 ft | 495 kts | 5° |
| 2026-05-06 15:15 | 31.07272 | 130.48510 | 33085 ft | 493 kts | 5° |
| 2026-05-06 15:16 | 31.14069 | 130.49568 | 33080 ft | 492 kts | 5° |
| 2026-05-06 15:16 | 31.20836 | 130.50624 | 33095 ft | 492 kts | 5° |
| 2026-05-06 15:17 | 31.27594 | 130.51679 | 33095 ft | 491 kts | 5° |
| 2026-05-06 15:17 | 31.34357 | 130.52739 | 33099 ft | 489 kts | 5° |
| 2026-05-06 15:18 | 31.41144 | 130.53800 | 33085 ft | 489 kts | 5° |
| 2026-05-06 15:18 | 31.47844 | 130.54852 | 33103 ft | 487 kts | 5° |
| 2026-05-06 15:19 | 31.54550 | 130.55906 | 33096 ft | 487 kts | 5° |
| 2026-05-06 15:19 | 31.61264 | 130.56960 | 33104 ft | 487 kts | 5° |
| 2026-05-06 15:20 | 31.67980 | 130.57862 | 33095 ft | 484 kts | 358° |
| 2026-05-06 15:20 | 31.74601 | 130.56814 | 33105 ft | 475 kts | 339° |
| 2026-05-06 15:21 | 31.80521 | 130.53609 | 33101 ft | 468 kts | 327° |
| 2026-05-06 15:21 | 31.86122 | 130.49762 | 33096 ft | 466 kts | 326° |
| 2026-05-06 15:22 | 31.91720 | 130.46013 | 32806 ft | 457 kts | 330° |
| 2026-05-06 15:22 | 31.94556 | 130.44381 | 32071 ft | 447 kts | 331° |
| 2026-05-06 15:22 | 31.97357 | 130.42793 | 30850 ft | 453 kts | 333° |
| 2026-05-06 15:22 | 32.00216 | 130.41186 | 29816 ft | 451 kts | 333° |
| 2026-05-06 15:23 | 32.03006 | 130.39617 | 28958 ft | 444 kts | 334° |
| 2026-05-06 15:23 | 32.05781 | 130.38052 | 28098 ft | 436 kts | 334° |
| 2026-05-06 15:23 | 32.08513 | 130.36520 | 27171 ft | 431 kts | 334° |
| 2026-05-06 15:23 | 32.11167 | 130.35025 | 26265 ft | 426 kts | 334° |
| 2026-05-06 15:24 | 32.13821 | 130.33526 | 25358 ft | 420 kts | 334° |
| 2026-05-06 15:24 | 32.16453 | 130.32037 | 24453 ft | 415 kts | 334° |
| 2026-05-06 15:24 | 32.19060 | 130.30563 | 23592 ft | 410 kts | 334° |
| 2026-05-06 15:24 | 32.21581 | 130.29136 | 22861 ft | 402 kts | 334° |
| 2026-05-06 15:25 | 32.24099 | 130.27711 | 22013 ft | 397 kts | 334° |
| 2026-05-06 15:25 | 32.26560 | 130.26317 | 21171 ft | 394 kts | 334° |
| 2026-05-06 15:25 | 32.29028 | 130.24919 | 20384 ft | 389 kts | 334° |
| 2026-05-06 15:25 | 32.31406 | 130.23570 | 19894 ft | 377 kts | 334° |
| 2026-05-06 15:26 | 32.33772 | 130.22226 | 19167 ft | 372 kts | 334° |
| 2026-05-06 15:26 | 32.36083 | 130.20916 | 18425 ft | 370 kts | 334° |
| 2026-05-06 15:26 | 32.38399 | 130.19601 | 17724 ft | 366 kts | 334° |
| 2026-05-06 15:26 | 32.40693 | 130.18298 | 17013 ft | 363 kts | 334° |
| 2026-05-06 15:27 | 32.42941 | 130.17019 | 16333 ft | 359 kts | 334° |
| 2026-05-06 15:27 | 32.45186 | 130.15741 | 15641 ft | 356 kts | 334° |
| 2026-05-06 15:27 | 32.47423 | 130.14469 | 14973 ft | 352 kts | 333° |
| 2026-05-06 15:27 | 32.49604 | 130.13226 | 14306 ft | 349 kts | 333° |
| 2026-05-06 15:28 | 32.51775 | 130.11987 | 13927 ft | 338 kts | 333° |
| 2026-05-06 15:28 | 32.53853 | 130.10804 | 13395 ft | 333 kts | 333° |
| 2026-05-06 15:28 | 32.55947 | 130.09608 | 12803 ft | 329 kts | 333° |
| 2026-05-06 15:28 | 32.58022 | 130.08539 | 12289 ft | 325 kts | 338° |
| 2026-05-06 15:29 | 32.60130 | 130.07652 | 11948 ft | 315 kts | 340° |
| 2026-05-06 15:29 | 32.62193 | 130.06846 | 11427 ft | 313 kts | 341° |
| 2026-05-06 15:29 | 32.64270 | 130.06109 | 11028 ft | 307 kts | 344° |
| 2026-05-06 15:29 | 32.66311 | 130.05551 | 10699 ft | 300 kts | 346° |
| 2026-05-06 15:30 | 32.68349 | 130.05024 | 10234 ft | 297 kts | 346° |
| 2026-05-06 15:30 | 32.70355 | 130.04515 | 9756 ft | 296 kts | 346° |
| 2026-05-06 15:30 | 32.72359 | 130.04004 | 9292 ft | 295 kts | 346° |
| 2026-05-06 15:30 | 32.74362 | 130.03495 | 8824 ft | 293 kts | 346° |
| 2026-05-06 15:31 | 32.76357 | 130.02990 | 8385 ft | 291 kts | 346° |
| 2026-05-06 15:31 | 32.78314 | 130.02492 | 7990 ft | 289 kts | 346° |
| 2026-05-06 15:31 | 32.80287 | 130.01991 | 7565 ft | 287 kts | 347° |
| 2026-05-06 15:32 | 32.84167 | 130.01002 | 6736 ft | 284 kts | 347° |
| 2026-05-06 15:32 | 32.86102 | 130.00508 | 6332 ft | 282 kts | 347° |
| 2026-05-06 15:32 | 32.88003 | 130.00026 | 5930 ft | 281 kts | 347° |
| 2026-05-06 15:32 | 32.89919 | 129.99537 | 5523 ft | 280 kts | 347° |
| 2026-05-06 15:33 | 32.91826 | 129.99050 | 5130 ft | 276 kts | 347° |
| 2026-05-06 15:33 | 32.93700 | 129.98689 | 4710 ft | 276 kts | 1° |
| 2026-05-06 15:33 | 32.95521 | 129.99298 | 4442 ft | 268 kts | 32° |
| 2026-05-06 15:33 | 32.96760 | 130.00844 | 4234 ft | 259 kts | 64° |
| 2026-05-06 15:34 | 32.97413 | 130.02786 | 4290 ft | 248 kts | 71° |
| 2026-05-06 15:34 | 32.98015 | 130.04783 | 4531 ft | 269 kts | 70° |
| 2026-05-06 15:34 | 32.98741 | 130.06819 | 4821 ft | 264 kts | 66° |
| 2026-05-06 15:34 | 32.99555 | 130.08762 | 5014 ft | 265 kts | 62° |
| 2026-05-06 15:35 | 33.00466 | 130.10694 | 5047 ft | 265 kts | 60° |
| 2026-05-06 15:35 | 33.01404 | 130.12566 | 5069 ft | 265 kts | 59° |
| 2026-05-06 15:35 | 33.02368 | 130.14452 | 4895 ft | 263 kts | 58° |
| 2026-05-06 15:35 | 33.03385 | 130.16234 | 4723 ft | 255 kts | 54° |
| 2026-05-06 15:36 | 33.04433 | 130.17896 | 4521 ft | 252 kts | 53° |
| 2026-05-06 15:36 | 33.05501 | 130.19558 | 4262 ft | 250 kts | 53° |
| 2026-05-06 15:36 | 33.06551 | 130.21183 | 4002 ft | 249 kts | 53° |
| 2026-05-06 15:36 | 33.07609 | 130.22823 | 3751 ft | 247 kts | 53° |
| 2026-05-06 15:37 | 33.08639 | 130.24424 | 3563 ft | 243 kts | 53° |
| 2026-05-06 15:37 | 33.09677 | 130.26030 | 3443 ft | 244 kts | 53° |
| 2026-05-06 15:37 | 33.10704 | 130.27632 | 3318 ft | 245 kts | 53° |
| 2026-05-06 15:37 | 33.11741 | 130.29248 | 3194 ft | 244 kts | 53° |
| 2026-05-06 15:38 | 33.12775 | 130.30854 | 3074 ft | 242 kts | 53° |
| 2026-05-06 15:38 | 33.13792 | 130.32440 | 2952 ft | 242 kts | 53° |
| 2026-05-06 15:38 | 33.14799 | 130.34011 | 2816 ft | 235 kts | 53° |
| 2026-05-06 15:38 | 33.15786 | 130.35557 | 2796 ft | 231 kts | 53° |
| 2026-05-06 15:39 | 33.16758 | 130.37067 | 2756 ft | 230 kts | 53° |
| 2026-05-06 15:39 | 33.17742 | 130.38599 | 2678 ft | 231 kts | 53° |
| 2026-05-06 15:39 | 33.18712 | 130.40117 | 2605 ft | 232 kts | 53° |
| 2026-05-06 15:39 | 33.19701 | 130.41656 | 2540 ft | 231 kts | 53° |
| 2026-05-06 15:40 | 33.20657 | 130.43150 | 2469 ft | 225 kts | 54° |
| 2026-05-06 15:40 | 33.21595 | 130.44628 | 2380 ft | 220 kts | 53° |
| 2026-05-06 15:40 | 33.22523 | 130.46073 | 2301 ft | 220 kts | 53° |
| 2026-05-06 15:40 | 33.23460 | 130.47531 | 2168 ft | 220 kts | 53° |
| 2026-05-06 15:41 | 33.24381 | 130.48979 | 2105 ft | 219 kts | 53° |
| 2026-05-06 15:41 | 33.25335 | 130.50407 | 2052 ft | 219 kts | 44° |
| 2026-05-06 15:41 | 33.26634 | 130.51277 | 2037 ft | 215 kts | 21° |
| 2026-05-06 15:41 | 33.28030 | 130.51852 | 2025 ft | 206 kts | 18° |
| 2026-05-06 15:42 | 33.29351 | 130.52344 | 2012 ft | 196 kts | 17° |
| 2026-05-06 15:42 | 33.30654 | 130.52825 | 1989 ft | 192 kts | 18° |
| 2026-05-06 15:42 | 33.31891 | 130.53313 | 1993 ft | 186 kts | 20° |
| 2026-05-06 15:42 | 33.33097 | 130.53882 | 2010 ft | 185 kts | 23° |
| 2026-05-06 15:43 | 33.34276 | 130.54485 | 2030 ft | 185 kts | 24° |
| 2026-05-06 15:43 | 33.35428 | 130.55076 | 2042 ft | 175 kts | 24° |
| 2026-05-06 15:43 | 33.36510 | 130.55636 | 2028 ft | 166 kts | 24° |
| 2026-05-06 15:43 | 33.37574 | 130.56187 | 2028 ft | 166 kts | 25° |
| 2026-05-06 15:44 | 33.38602 | 130.56796 | 2035 ft | 167 kts | 28° |
| 2026-05-06 15:44 | 33.39655 | 130.57344 | 2030 ft | 168 kts | 6° |
| 2026-05-06 15:44 | 33.40740 | 130.57005 | 2035 ft | 161 kts | 334° |
| 2026-05-06 15:44 | 33.41738 | 130.56421 | 2031 ft | 157 kts | 334° |
| 2026-05-06 15:45 | 33.42718 | 130.55851 | 2066 ft | 158 kts | 333° |
| 2026-05-06 15:45 | 33.43700 | 130.55231 | 2086 ft | 160 kts | 331° |
| 2026-05-06 15:45 | 33.44672 | 130.54579 | 2098 ft | 160 kts | 330° |
| 2026-05-06 15:45 | 33.45625 | 130.53912 | 2139 ft | 161 kts | 330° |
| 2026-05-06 15:46 | 33.46605 | 130.53252 | 2171 ft | 160 kts | 330° |
| 2026-05-06 15:46 | 33.47565 | 130.52592 | 2131 ft | 159 kts | 331° |
| 2026-05-06 15:46 | 33.48538 | 130.51936 | 2157 ft | 160 kts | 331° |
| 2026-05-06 15:46 | 33.49499 | 130.51284 | 2187 ft | 160 kts | 330° |
| 2026-05-06 15:47 | 33.50467 | 130.50612 | 2210 ft | 158 kts | 330° |
| 2026-05-06 15:47 | 33.51099 | 130.50173 | 2225 ft | 158 kts | 330° |
| 2026-05-06 15:47 | 33.52381 | 130.49268 | 2076 ft | 167 kts | 330° |
| 2026-05-06 15:47 | 33.53065 | 130.48803 | 1857 ft | 173 kts | 332° |
| 2026-05-06 15:48 | 33.54131 | 130.48101 | 1416 ft | 174 kts | 333° |
| 2026-05-06 15:48 | 33.55189 | 130.47400 | 1017 ft | 168 kts | 331° |
| 2026-05-06 15:48 | 33.56123 | 130.46746 | 730 ft | 147 kts | 331° |
| 2026-05-06 15:48 | 33.57011 | 130.46142 | 270 ft | 143 kts | 330° |
| 2026-05-06 15:49 | 33.57834 | 130.45589 | 84 ft | 134 kts | 330° |
| 2026-05-06 15:49 | 33.58630 | 130.45050 | 38 ft | 120 kts | 329° |
| 2026-05-06 15:49 | 33.59177 | 130.44674 | 25 ft | 44 kts | 327° |
| 2026-05-06 15:49 | 33.59264 | 130.44499 | 26 ft | 20 kts | 242° |
| 2026-05-06 15:50 | 33.59154 | 130.44461 | 28 ft | 15 kts | 160° |
| 2026-05-06 15:50 | 33.59053 | 130.44510 | 26 ft | 16 kts | 150° |
| 2026-05-06 15:50 | 33.58950 | 130.44588 | 27 ft | 19 kts | 148° |
| 2026-05-06 15:50 | 33.58831 | 130.44675 | 28 ft | 21 kts | 149° |
| 2026-05-06 15:51 | 33.58707 | 130.44738 | 29 ft | 15 kts | 207° |
| 2026-05-06 15:51 | 33.58671 | 130.44653 | 29 ft | 0 kts | 240° |
| 2026-05-06 15:51 | 33.58670 | 130.44653 | 29 ft | 0 kts | 240° |